createdAt,value
2018-03-20T00:01:29.254Z,101504.50
2018-03-20T00:03:56.881Z,101505.16
2018-03-20T00:06:24.599Z,101507.78
2018-03-20T00:08:52.166Z,101501.30
2018-03-20T00:11:20.102Z,101497.36
2018-03-20T00:13:47.780Z,101495.55
2018-03-20T00:16:15.409Z,101493.63
2018-03-20T00:18:43.049Z,101496.37
2018-03-20T00:21:10.900Z,101493.26
2018-03-20T00:23:38.753Z,101483.98
2018-03-20T00:26:06.322Z,101483.80
2018-03-20T00:28:34.113Z,101486.87
2018-03-20T00:31:01.818Z,101480.61
2018-03-20T00:33:29.379Z,101480.48
2018-03-20T00:35:57.008Z,101483.97
2018-03-20T00:38:24.940Z,101477.34
2018-03-20T00:40:52.581Z,101475.81
2018-03-20T00:43:20.271Z,101472.90
2018-03-20T00:45:48.146Z,101476.50
2018-03-20T00:48:15.724Z,101472.55
2018-03-20T00:50:43.383Z,101472.06
2018-03-20T00:53:11.011Z,101468.53
2018-03-20T00:55:38.598Z,101472.61
2018-03-20T00:58:06.213Z,101479.17
2018-03-20T01:00:33.821Z,101480.14
2018-03-20T01:03:01.485Z,101474.17
2018-03-20T01:05:29.072Z,101475.90
2018-03-20T01:07:56.640Z,101469.92
2018-03-20T01:10:24.288Z,101466.25
2018-03-20T01:12:51.901Z,101463.36
2018-03-20T01:15:19.470Z,101457.48
2018-03-20T01:17:47.131Z,101452.20
2018-03-20T01:20:14.746Z,101453.59
2018-03-20T01:22:42.330Z,101445.04
2018-03-20T01:25:10.003Z,101444.53
2018-03-20T01:27:37.646Z,101447.26
2018-03-20T01:30:05.224Z,101449.45
2018-03-20T01:32:32.943Z,101461.78
2018-03-20T01:35:00.498Z,101455.22
2018-03-20T01:37:28.077Z,101451.89
2018-03-20T01:39:55.773Z,101447.75
2018-03-20T01:42:23.346Z,101451.35
2018-03-20T01:44:51.003Z,101442.83
2018-03-20T01:47:18.645Z,101437.24
2018-03-20T01:49:46.531Z,101434.20
2018-03-20T01:52:14.507Z,101422.23
2018-03-20T01:54:42.087Z,101426.95
2018-03-20T01:57:09.755Z,101430.53
2018-03-20T01:59:37.327Z,101423.02
2018-03-20T02:02:05.900Z,101426.94
2018-03-20T02:04:33.541Z,101422.69
2018-03-20T02:07:01.127Z,101419.30
2018-03-20T02:09:28.734Z,101420.67
2018-03-20T02:11:56.408Z,101418.23
2018-03-20T02:14:24.041Z,101415.61
2018-03-20T02:16:51.728Z,101421.07
2018-03-20T02:19:19.600Z,101416.16
2018-03-20T02:21:47.196Z,101421.00
2018-03-20T02:24:15.272Z,101406.00
2018-03-20T02:26:42.835Z,101406.27
2018-03-20T02:29:10.615Z,101398.56
2018-03-20T02:31:38.380Z,101397.77
2018-03-20T02:34:06.008Z,101398.34
2018-03-20T02:36:33.851Z,101392.07
2018-03-20T02:39:01.438Z,101389.86
2018-03-20T02:41:29.085Z,101387.41
2018-03-20T02:43:56.714Z,101389.09
2018-03-20T02:46:24.293Z,101390.11
2018-03-20T02:48:51.986Z,101390.25
2018-03-20T02:51:19.896Z,101385.94
2018-03-20T02:53:47.652Z,101387.24
2018-03-20T02:56:15.340Z,101386.33
2018-03-20T02:58:42.932Z,101387.13
2018-03-20T03:01:10.891Z,101384.48
2018-03-20T03:03:38.492Z,101382.40
2018-03-20T03:06:06.169Z,101386.16
2018-03-20T03:08:33.754Z,101377.98
2018-03-20T03:11:01.484Z,101382.66
2018-03-20T03:13:29.060Z,101384.30
2018-03-20T03:15:56.714Z,101376.09
2018-03-20T03:18:24.345Z,101379.14
2018-03-20T03:20:52.244Z,101380.05
2018-03-20T03:23:19.842Z,101376.84
2018-03-20T03:25:47.603Z,101377.01
2018-03-20T03:28:15.247Z,101372.24
2018-03-20T03:30:42.936Z,101376.41
2018-03-20T03:33:10.562Z,101376.11
2018-03-20T03:35:38.157Z,101373.77
2018-03-20T03:38:05.977Z,101383.80
2018-03-20T03:40:33.595Z,101389.89
2018-03-20T03:43:01.553Z,101393.57
2018-03-20T03:45:29.114Z,101393.94
2018-03-20T03:47:56.948Z,101395.27
2018-03-20T03:50:24.512Z,101404.10
2018-03-20T03:52:52.407Z,101402.20
2018-03-20T03:55:20.109Z,101399.27
2018-03-20T03:57:47.855Z,101397.19
2018-03-20T04:00:15.490Z,101398.40
2018-03-20T04:02:43.131Z,101396.09
2018-03-20T04:05:10.886Z,101400.11
2018-03-20T04:07:38.588Z,101409.42
2018-03-20T04:10:06.377Z,101413.91
2018-03-20T04:12:34.165Z,101409.77
2018-03-20T04:15:01.798Z,101407.67
2018-03-20T04:17:29.626Z,101413.20
2018-03-20T04:19:57.484Z,101414.04
2018-03-20T04:22:25.126Z,101417.84
2018-03-20T04:24:52.930Z,101423.44
2018-03-20T04:27:20.889Z,101429.69
2018-03-20T04:29:48.564Z,101422.58
2018-03-20T04:32:16.261Z,101419.07
2018-03-20T04:34:43.863Z,101423.18
2018-03-20T04:37:11.426Z,101426.27
2018-03-20T04:39:39.014Z,101443.63
2018-03-20T04:42:06.780Z,101436.42
2018-03-20T04:44:34.382Z,101437.89
2018-03-20T04:47:01.970Z,101432.36
2018-03-20T04:49:29.870Z,101441.44
2018-03-20T04:51:57.468Z,101446.64
2018-03-20T04:54:25.122Z,101447.06
2018-03-20T04:56:52.968Z,101447.64
2018-03-20T04:59:20.577Z,101452.09
2018-03-20T05:01:48.230Z,101449.54
2018-03-20T05:04:16.208Z,101458.06
2018-03-20T05:06:43.851Z,101464.17
2018-03-20T05:09:11.469Z,101461.70
2018-03-20T05:11:39.124Z,101471.39
2018-03-20T05:14:06.677Z,101480.30
2018-03-20T05:16:34.313Z,101481.90
2018-03-20T05:19:07.763Z,101484.03
2018-03-20T05:21:54.078Z,101486.22
2018-03-20T05:24:21.694Z,101495.34
2018-03-20T05:26:49.452Z,101498.94
2018-03-20T05:29:17.374Z,101500.05
2018-03-20T05:31:44.981Z,101509.54
2018-03-20T05:34:12.629Z,101514.14
2018-03-20T05:36:40.382Z,101531.55
2018-03-20T05:39:07.973Z,101533.19
2018-03-20T05:41:35.676Z,101534.30
2018-03-20T05:44:03.304Z,101539.54
2018-03-20T05:46:36.647Z,101546.04
2018-03-20T05:52:13.751Z,101548.61
2018-03-20T05:54:41.363Z,101557.97
2018-03-20T05:57:09.034Z,101563.17
2018-03-20T05:59:36.628Z,101570.00
2018-03-20T06:02:04.225Z,101576.42
2018-03-20T06:04:31.880Z,101581.00
2018-03-20T06:06:59.517Z,101583.62
2018-03-20T06:09:27.198Z,101584.66
2018-03-20T06:11:54.908Z,101587.62
2018-03-20T06:14:25.883Z,101600.13
2018-03-20T06:16:53.993Z,101601.35
2018-03-20T06:19:21.660Z,101603.49
2018-03-20T06:21:49.288Z,101608.28
2018-03-20T06:24:16.867Z,101610.53
2018-03-20T06:26:44.545Z,101617.22
2018-03-20T06:29:12.439Z,101624.70
2018-03-20T06:31:40.797Z,101624.38
2018-03-20T06:34:08.439Z,101629.38
2018-03-20T06:36:36.068Z,101636.19
2018-03-20T06:39:03.696Z,101645.54
2018-03-20T06:41:31.356Z,101640.94
2018-03-20T06:43:58.963Z,101640.58
2018-03-20T06:46:26.808Z,101647.51
2018-03-20T06:48:54.492Z,101663.27
2018-03-20T06:51:22.140Z,101661.00
2018-03-20T06:53:49.813Z,101660.59
2018-03-20T06:56:17.600Z,101666.59
2018-03-20T06:58:45.421Z,101675.53
2018-03-20T07:01:13.082Z,101682.52
2018-03-20T07:03:40.699Z,101679.06
2018-03-20T07:06:08.348Z,101683.38
2018-03-20T07:08:36.055Z,101696.12
2018-03-20T07:11:03.717Z,101705.02
2018-03-20T07:13:31.809Z,101706.35
2018-03-20T07:15:59.815Z,101709.59
2018-03-20T07:18:27.598Z,101713.36
2018-03-20T07:20:55.614Z,101710.61
2018-03-20T07:23:23.686Z,101715.52
2018-03-20T07:25:51.419Z,101721.67
2018-03-20T07:28:19.138Z,101720.86
2018-03-20T07:30:46.851Z,101729.22
2018-03-20T07:33:14.616Z,101736.20
2018-03-20T07:35:42.285Z,101736.60
2018-03-20T07:38:09.939Z,101747.06
2018-03-20T07:40:37.517Z,101748.75
2018-03-20T07:43:05.129Z,101759.11
2018-03-20T07:45:32.760Z,101758.05
2018-03-20T07:48:00.378Z,101770.60
2018-03-20T07:50:28.015Z,101773.98
2018-03-20T07:52:55.976Z,101777.08
2018-03-20T07:55:23.539Z,101777.64
2018-03-20T07:57:51.158Z,101776.72
2018-03-20T08:00:18.804Z,101781.86
2018-03-20T08:02:47.105Z,101781.88
2018-03-20T08:05:14.756Z,101779.91
2018-03-20T08:07:42.320Z,101784.44
2018-03-20T08:10:10.112Z,101799.84
2018-03-20T08:12:37.944Z,101801.65
2018-03-20T08:15:05.574Z,101804.22
2018-03-20T08:17:33.150Z,101808.89
2018-03-20T08:20:00.715Z,101813.44
2018-03-20T08:22:28.321Z,101817.73
2018-03-20T08:24:55.962Z,101825.36
2018-03-20T08:27:23.610Z,101825.41
2018-03-20T08:29:51.255Z,101829.15
2018-03-20T08:32:18.822Z,101834.44
2018-03-20T08:34:46.384Z,101838.98
2018-03-20T08:37:14.268Z,101840.32
2018-03-20T08:39:42.059Z,101842.63
2018-03-20T08:42:09.693Z,101845.14
2018-03-20T08:44:37.330Z,101844.05
2018-03-20T08:47:04.957Z,101844.75
2018-03-20T08:49:32.565Z,101854.16
2018-03-20T08:52:00.228Z,101853.06
2018-03-20T08:54:28.910Z,101871.59
2018-03-20T08:56:56.485Z,101869.68
2018-03-20T08:59:24.053Z,101867.03
2018-03-20T09:01:51.764Z,101871.40
2018-03-20T09:04:19.471Z,101882.46
2018-03-20T09:06:47.448Z,101882.30
2018-03-20T09:09:15.168Z,101879.50
2018-03-20T09:11:42.734Z,101890.67
2018-03-20T09:14:10.557Z,101887.97
2018-03-20T09:16:38.466Z,101893.39
2018-03-20T09:19:06.164Z,101899.70
2018-03-20T09:21:33.826Z,101904.19
2018-03-20T09:24:01.426Z,101905.64
2018-03-20T09:26:29.055Z,101906.31
2018-03-20T09:28:57.537Z,101914.42
2018-03-20T09:31:25.147Z,101912.85
2018-03-20T09:33:53.071Z,101921.37
2018-03-20T09:36:20.690Z,101926.41
2018-03-20T09:38:48.333Z,101925.59
2018-03-20T09:41:15.895Z,101930.15
2018-03-20T09:43:43.573Z,101936.03
2018-03-20T09:46:11.166Z,101944.09
2018-03-20T09:48:38.878Z,101940.41
2018-03-20T09:51:06.521Z,101948.44
2018-03-20T09:53:34.170Z,101960.46
2018-03-20T09:56:01.757Z,101958.47
2018-03-20T09:58:29.414Z,101973.22
2018-03-20T10:00:58.150Z,101965.87
2018-03-20T10:03:25.770Z,101975.20
2018-03-20T10:05:53.365Z,101972.07
2018-03-20T10:08:20.984Z,101969.97
2018-03-20T10:10:48.562Z,101977.03
2018-03-20T10:13:16.419Z,101989.87
2018-03-20T10:15:43.990Z,101980.94
2018-03-20T10:18:11.573Z,101992.52
2018-03-20T10:20:39.208Z,101985.84
2018-03-20T10:23:06.793Z,101994.34
2018-03-20T10:25:34.354Z,101998.66
2018-03-20T10:28:02.354Z,102002.70
2018-03-20T10:30:30.005Z,102009.30
2018-03-20T10:32:57.588Z,102006.11
2018-03-20T10:35:25.251Z,102003.63
2018-03-20T10:37:52.916Z,102017.25
2018-03-20T10:40:20.479Z,102019.13
2018-03-20T10:42:48.211Z,102024.13
2018-03-20T10:45:15.878Z,102035.05
2018-03-20T10:47:43.530Z,102039.13
2018-03-20T10:50:11.206Z,102043.14
2018-03-20T10:52:38.806Z,102035.75
2018-03-20T10:55:06.418Z,102042.88
2018-03-20T10:57:34.055Z,102044.51
2018-03-20T11:00:01.748Z,102045.42
2018-03-20T11:02:32.130Z,102045.58
2018-03-20T11:04:59.785Z,102047.88
2018-03-20T11:07:27.634Z,102059.12
2018-03-20T11:09:55.221Z,102058.34
2018-03-20T11:12:22.818Z,102057.37
2018-03-20T11:14:50.466Z,102047.64
2018-03-20T11:17:18.235Z,102064.42
2018-03-20T11:19:47.535Z,102057.67
2018-03-20T11:22:15.151Z,102054.02
2018-03-20T11:24:43.896Z,102063.36
2018-03-20T11:27:11.487Z,102079.48
2018-03-20T11:29:39.158Z,102064.98
2018-03-20T11:32:06.826Z,102068.64
2018-03-20T11:34:34.445Z,102078.63
2018-03-20T11:37:02.086Z,102078.48
2018-03-20T11:39:29.747Z,102079.75
2018-03-20T11:41:57.409Z,102088.67
2018-03-20T11:44:24.975Z,102085.96
2018-03-20T11:46:52.585Z,102096.23
2018-03-20T11:49:20.157Z,102097.74
2018-03-20T11:51:47.756Z,102102.36
2018-03-20T11:54:15.401Z,102108.63
2018-03-20T11:56:43.315Z,102102.64
2018-03-20T11:59:10.892Z,102103.44
2018-03-20T12:01:38.779Z,102110.45
2018-03-20T12:04:06.484Z,102110.59
2018-03-20T12:06:34.046Z,102115.22
2018-03-20T12:12:07.607Z,102113.02
2018-03-20T12:14:35.312Z,102118.70
2018-03-20T12:17:02.925Z,102110.77
2018-03-20T12:19:30.527Z,102106.23
2018-03-20T12:21:58.146Z,102112.81
2018-03-20T12:24:25.761Z,102121.66
2018-03-20T12:26:53.409Z,102120.35
2018-03-20T12:29:21.044Z,102120.52
2018-03-20T12:31:48.629Z,102128.33
2018-03-20T12:34:16.253Z,102130.95
2018-03-20T12:36:43.971Z,102136.26
2018-03-20T12:39:11.745Z,102142.96
2018-03-20T12:41:39.309Z,102139.02
2018-03-20T12:44:06.915Z,102144.83
2018-03-20T12:46:34.521Z,102151.57
2018-03-20T12:49:02.390Z,102161.98
2018-03-20T12:51:30.184Z,102153.22
2018-03-20T12:53:57.787Z,102161.74
2018-03-20T12:56:25.442Z,102150.48
2018-03-20T12:58:53.263Z,102152.25
2018-03-20T13:01:22.399Z,102160.10
2018-03-20T13:03:50.023Z,102162.27
2018-03-20T13:06:17.687Z,102159.48
2018-03-20T13:08:45.307Z,102155.27
2018-03-20T13:11:13.341Z,102158.53
2018-03-20T13:13:40.940Z,102154.17
2018-03-20T13:16:08.585Z,102157.06
2018-03-20T13:18:36.535Z,102153.41
2018-03-20T13:21:04.096Z,102167.00
2018-03-20T13:23:31.688Z,102160.81
2018-03-20T13:25:59.412Z,102160.52
2018-03-20T13:28:26.990Z,102164.71
2018-03-20T13:30:54.566Z,102167.86
2018-03-20T13:33:22.205Z,102169.70
2018-03-20T13:35:49.786Z,102163.81
2018-03-20T13:38:18.016Z,102167.28
2018-03-20T13:40:45.911Z,102184.66
2018-03-20T13:43:13.524Z,102176.20
2018-03-20T13:45:41.445Z,102174.75
2018-03-20T13:48:09.011Z,102185.19
2018-03-20T13:50:36.655Z,102182.84
2018-03-20T13:53:04.225Z,102188.80
2018-03-20T13:55:31.876Z,102184.20
2018-03-20T13:57:59.489Z,102187.67
2018-03-20T14:00:27.398Z,102198.00
2018-03-20T14:02:55.011Z,102194.59
2018-03-20T14:05:22.845Z,102187.50
2018-03-20T14:07:50.460Z,102216.88
2018-03-20T14:10:18.092Z,102205.57
2018-03-20T14:12:45.680Z,102203.63
2018-03-20T14:15:13.677Z,102206.05
2018-03-20T14:17:41.310Z,102204.74
2018-03-20T14:20:08.985Z,102215.27
2018-03-20T14:22:36.827Z,102203.16
2018-03-20T14:25:04.496Z,102212.09
2018-03-20T14:27:32.099Z,102206.04
2018-03-20T14:29:59.996Z,102208.32
2018-03-20T14:32:27.623Z,102218.57
2018-03-20T14:34:55.200Z,102214.48
2018-03-20T14:37:22.805Z,102224.50
2018-03-20T14:39:50.623Z,102213.25
2018-03-20T14:42:18.256Z,102219.57
2018-03-20T14:44:45.873Z,102225.90
2018-03-20T14:47:13.502Z,102222.92
2018-03-20T14:49:41.114Z,102220.59
2018-03-20T14:52:08.716Z,102230.23
2018-03-20T14:54:36.342Z,102233.36
2018-03-20T14:57:03.943Z,102237.39
2018-03-20T14:59:31.574Z,102246.94
2018-03-20T15:01:59.227Z,102249.73
2018-03-20T15:04:26.880Z,102253.16
2018-03-20T15:06:54.507Z,102252.37
2018-03-20T15:09:22.153Z,102258.20
2018-03-20T15:11:50.125Z,102253.47
2018-03-20T15:14:17.694Z,102262.41
2018-03-20T15:16:45.342Z,102261.03
2018-03-20T15:19:13.413Z,102267.16
2018-03-20T15:21:41.159Z,102270.68
2018-03-20T15:24:08.787Z,102275.16
2018-03-20T15:26:37.115Z,102272.97
2018-03-20T15:29:04.791Z,102276.51
2018-03-20T15:31:32.383Z,102279.34
2018-03-20T15:34:00.528Z,102280.97
2018-03-20T15:36:28.260Z,102279.59
2018-03-20T15:38:55.838Z,102282.38
2018-03-20T15:41:23.418Z,102292.38
2018-03-20T15:43:51.111Z,102297.03
2018-03-20T15:46:18.691Z,102300.05
2018-03-20T15:48:46.303Z,102297.56
2018-03-20T15:51:13.892Z,102300.62
2018-03-20T15:53:41.523Z,102303.77
2018-03-20T15:56:09.161Z,102319.27
2018-03-20T15:58:36.730Z,102311.70
2018-03-20T16:01:04.302Z,102322.86
2018-03-20T16:03:31.986Z,102320.63
2018-03-20T16:05:59.583Z,102321.04
2018-03-20T16:08:27.369Z,102323.05
2018-03-20T16:10:54.989Z,102333.20
2018-03-20T16:13:22.621Z,102336.11
2018-03-20T16:15:50.211Z,102342.23
2018-03-20T16:18:17.785Z,102345.00
2018-03-20T16:20:45.433Z,102347.03
2018-03-20T16:23:13.112Z,102358.48
2018-03-20T16:25:40.718Z,102359.50
2018-03-20T16:28:08.397Z,102355.24
2018-03-20T16:30:35.979Z,102359.36
2018-03-20T16:33:03.637Z,102358.42
2018-03-20T16:35:31.233Z,102366.56
2018-03-20T16:37:58.790Z,102381.19
2018-03-20T16:40:26.381Z,102378.91
2018-03-20T16:42:54.121Z,102376.55
2018-03-20T16:45:21.692Z,102391.21
2018-03-20T16:47:49.352Z,102388.84
2018-03-20T16:50:17.006Z,102392.26
2018-03-20T16:52:44.641Z,102395.83
2018-03-20T16:55:12.250Z,102401.20
2018-03-20T16:57:39.842Z,102403.30
2018-03-20T17:00:07.415Z,102410.82
2018-03-20T17:02:35.120Z,102413.33
2018-03-20T17:05:02.672Z,102408.94
2018-03-20T17:07:30.327Z,102412.13
2018-03-20T17:09:57.884Z,102425.27
2018-03-20T17:12:25.540Z,102428.45
2018-03-20T17:14:53.146Z,102423.14
2018-03-20T17:17:21.307Z,102428.52
2018-03-20T17:19:48.936Z,102428.61
2018-03-20T17:22:16.708Z,102429.45
2018-03-20T17:24:44.556Z,102434.67
2018-03-20T17:27:12.223Z,102428.34
2018-03-20T17:29:39.905Z,102431.70
2018-03-20T17:32:07.507Z,102434.88
2018-03-20T17:34:35.075Z,102439.79
2018-03-20T17:37:02.718Z,102443.95
2018-03-20T17:39:30.392Z,102446.41
2018-03-20T17:41:57.945Z,102449.58
2018-03-20T17:44:25.534Z,102451.17
2018-03-20T17:46:53.460Z,102454.98
2018-03-20T17:49:21.075Z,102461.30
2018-03-20T17:51:48.660Z,102465.15
2018-03-20T17:54:16.238Z,102462.13
2018-03-20T17:56:43.911Z,102472.41
2018-03-20T17:59:11.484Z,102472.27
2018-03-20T18:01:39.151Z,102470.97
2018-03-20T18:04:06.803Z,102480.73
2018-03-20T18:06:34.707Z,102486.59
2018-03-20T18:09:02.441Z,102486.23
2018-03-20T18:11:30.079Z,102488.09
2018-03-20T18:13:57.702Z,102497.19
2018-03-20T18:16:25.294Z,102497.02
2018-03-20T18:18:52.927Z,102506.52
2018-03-20T18:21:20.564Z,102499.14
2018-03-20T18:23:48.131Z,102498.77
2018-03-20T18:26:15.733Z,102506.99
2018-03-20T18:28:43.352Z,102511.58
2018-03-20T18:31:11.043Z,102516.58
2018-03-20T18:33:38.612Z,102518.57
2018-03-20T18:36:06.499Z,102520.62
2018-03-20T18:38:34.147Z,102523.16
2018-03-20T18:41:01.717Z,102530.06
2018-03-20T18:43:29.592Z,102528.34
2018-03-20T18:45:57.229Z,102534.63
2018-03-20T18:48:24.876Z,102537.01
2018-03-20T18:50:52.482Z,102543.72
2018-03-20T18:53:20.070Z,102546.89
2018-03-20T18:55:47.707Z,102545.55
2018-03-20T18:58:15.341Z,102546.24
2018-03-20T19:00:43.234Z,102554.97
2018-03-20T19:03:11.106Z,102551.71
2018-03-20T19:05:38.800Z,102556.95
2018-03-20T19:08:06.599Z,102560.47
2018-03-20T19:10:34.178Z,102556.90
2018-03-20T19:13:01.821Z,102560.84
2018-03-20T19:15:29.710Z,102564.12
2018-03-20T19:17:57.266Z,102568.31
2018-03-20T19:20:24.997Z,102573.08
2018-03-20T19:22:52.743Z,102566.41
2018-03-20T19:25:20.322Z,102584.31
2018-03-20T19:27:47.936Z,102584.08
2018-03-20T19:30:15.572Z,102590.09
2018-03-20T19:32:43.142Z,102588.36
2018-03-20T19:35:10.754Z,102589.95
2018-03-20T19:37:38.400Z,102597.08
2018-03-20T19:40:05.975Z,102598.37
2018-03-20T19:42:33.623Z,102601.23
2018-03-20T19:45:01.206Z,102613.91
2018-03-20T19:47:28.770Z,102610.42
2018-03-20T19:49:56.786Z,102616.81
2018-03-20T19:52:24.374Z,102611.84
2018-03-20T19:54:51.939Z,102618.77
2018-03-20T19:57:19.562Z,102622.90
2018-03-20T19:59:47.157Z,102623.92
2018-03-20T20:02:14.754Z,102631.91
2018-03-20T20:04:42.351Z,102634.67
2018-03-20T20:07:10.006Z,102637.56
2018-03-20T20:09:37.644Z,102647.81
2018-03-20T20:12:05.199Z,102649.20
2018-03-20T20:14:32.903Z,102646.45
2018-03-20T20:17:00.501Z,102641.91
2018-03-20T20:19:28.331Z,102645.53
2018-03-20T20:21:55.989Z,102649.17
2018-03-20T20:24:23.580Z,102651.77
2018-03-20T20:26:51.149Z,102652.81
2018-03-20T20:29:18.804Z,102656.33
2018-03-20T20:31:46.493Z,102662.72
2018-03-20T20:34:14.393Z,102660.80
2018-03-20T20:36:42.006Z,102665.42
2018-03-20T20:39:09.665Z,102663.29
2018-03-20T20:41:37.633Z,102668.13
2018-03-20T20:44:05.204Z,102664.13
2018-03-20T20:46:32.907Z,102668.38
2018-03-20T20:49:00.568Z,102667.15
2018-03-20T20:51:28.225Z,102668.81
2018-03-20T20:53:55.796Z,102667.70
2018-03-20T20:56:23.413Z,102676.12
2018-03-20T20:58:51.081Z,102677.69
2018-03-20T21:01:18.669Z,102686.03
2018-03-20T21:03:46.832Z,102679.03
2018-03-20T21:06:14.509Z,102677.58
2018-03-20T21:08:42.090Z,102681.39
2018-03-20T21:11:09.742Z,102680.16
2018-03-20T21:13:37.327Z,102673.47
2018-03-20T21:16:04.944Z,102671.93
2018-03-20T21:18:32.537Z,102674.01
2018-03-20T21:21:00.121Z,102670.80
2018-03-20T21:23:27.992Z,102665.98
2018-03-20T21:25:55.654Z,102673.38
2018-03-20T21:28:23.248Z,102670.31
2018-03-20T21:30:50.897Z,102667.33
2018-03-20T21:33:18.554Z,102675.23
2018-03-20T21:35:46.110Z,102669.68
2018-03-20T21:38:18.650Z,102665.46
2018-03-20T21:40:46.244Z,102671.83
2018-03-20T21:43:13.905Z,102669.47
2018-03-20T21:45:41.493Z,102676.89
2018-03-20T21:48:09.327Z,102679.45
2018-03-20T21:50:36.928Z,102683.68
2018-03-20T21:53:04.781Z,102686.63
2018-03-20T21:55:32.436Z,102685.92
2018-03-20T21:58:00.980Z,102685.82
2018-03-20T22:00:28.567Z,102688.17
2018-03-20T22:02:56.256Z,102688.98
2018-03-20T22:05:23.930Z,102683.95
2018-03-20T22:07:51.623Z,102684.27
2018-03-20T22:10:19.223Z,102685.17
2018-03-20T22:12:46.995Z,102681.59
2018-03-20T22:15:14.577Z,102684.05
2018-03-20T22:17:42.220Z,102684.36
2018-03-20T22:20:09.907Z,102687.73
2018-03-20T22:22:37.565Z,102690.19
2018-03-20T22:25:05.161Z,102696.27
2018-03-20T22:27:32.780Z,102697.70
2018-03-20T22:30:00.371Z,102696.48
2018-03-20T22:32:28.020Z,102695.63
2018-03-20T22:34:55.692Z,102691.34
2018-03-20T22:37:23.355Z,102695.45
2018-03-20T22:39:51.042Z,102694.51
2018-03-20T22:42:18.779Z,102697.38
2018-03-20T22:44:46.338Z,102700.86
2018-03-20T22:47:13.945Z,102701.17
2018-03-20T22:49:41.673Z,102707.52
2018-03-20T22:52:09.375Z,102698.37
2018-03-20T22:54:36.944Z,102703.80
2018-03-20T22:57:04.566Z,102706.36
2018-03-20T22:59:32.391Z,102710.86
2018-03-20T23:02:00.015Z,102705.72
2018-03-20T23:04:27.611Z,102713.71
2018-03-20T23:06:56.229Z,102717.08
2018-03-20T23:09:23.810Z,102712.95
2018-03-20T23:11:51.400Z,102721.07
2018-03-20T23:14:19.718Z,102717.59
2018-03-20T23:16:47.369Z,102724.75
2018-03-20T23:19:15.041Z,102727.42
2018-03-20T23:21:42.676Z,102734.30
2018-03-20T23:24:10.490Z,102732.38
2018-03-20T23:26:38.081Z,102734.74
2018-03-20T23:29:05.641Z,102726.73
2018-03-20T23:31:33.228Z,102726.83
2018-03-20T23:34:00.838Z,102730.42
2018-03-20T23:36:28.524Z,102729.99
2018-03-20T23:38:56.158Z,102735.77
2018-03-20T23:41:23.831Z,102730.53
2018-03-20T23:43:51.457Z,102730.11
2018-03-20T23:46:19.037Z,102724.08
2018-03-20T23:48:46.614Z,102728.28
2018-03-20T23:51:14.240Z,102727.33
2018-03-20T23:53:41.825Z,102729.08
2018-03-20T23:56:09.402Z,102731.78
2018-03-20T23:58:37.138Z,102738.23
